Delta Virtual Airport Information Service

Eugene Airport

ICAO: KEUG Country: United States
Latitude: 44.1246 Longitude: -123.211
Latest Arrival : SKW3552 (2) (KSLC-KEUG) Latest Departure : SKW3108 (1) (KEUG-KLAX)


WX CaptureLIVE
Data provided by noaa.gov | Fetched at 04:48:54

METAR : KEUG 030954Z AUTO 34006KT 10SM OVC028 04/02 A3028 RMK AO2 SLP253 T00390022

TAF : KEUG 030725Z 0307/0406 36011KT P6SM BKN030 FM031300 36006KT 4SM BR SCT008 BKN015 FM032200 36005KT P6SM SCT015


Runway Data for KEUG
Data provided by openaviationdata.com

Runway ID Mag Var Hdg Length Elevation Surface ILS Freq ILS Id ILS Slope
3 18 28° 5223 ft 369 ft Asphalt -- -- --
16 18 161° 8010 ft 369 ft Asphalt 109.5 IEUG 3
21 18 208° 5223 ft 369 ft Asphalt -- -- --
34 18 341° 8010 ft 369 ft Asphalt -- -- --

Eugene Airport, United States
Use only for reference purposes



Not for navigational purposes.